Time;durP1;ratioP1;P1;durP2;ratioP2;P2;SDS_P1;SDS_P2;PMS_P1;PMS_P2;Temp;Humidity;BMP_temperature;BMP_pressure;BME280_temperature;BME280_humidity;BME280_pressure;Samples;Min_cycle;Max_cycle;Signal;HPM_P1;HPM_P2
2022/09/01 00:02:44;;;;;;;12.30;5.28;;;;;;;13.67;88.38;99854.75;8427493;28;20052;-74
2022/09/01 00:06:46;;;;;;;14.70;4.93;;;;;;;13.68;87.99;99850.91;8412079;28;20056;-74
2022/09/01 00:10:47;;;;;;;14.90;4.65;;;;;;;13.67;88.04;99850.13;8427402;28;20044;-74
2022/09/01 00:14:48;;;;;;;13.10;5.15;;;;;;;13.69;88.01;99845.19;8427167;28;20202;-74
2022/09/01 00:18:51;;;;;;;13.05;4.72;;;;;;;13.68;88.20;99856.34;8427705;28;20036;-74
2022/09/01 00:22:54;;;;;;;13.10;5.05;;;;;;;13.65;88.24;99849.59;8427457;28;20052;-74
2022/09/01 00:26:55;;;;;;;9.75;4.78;;;;;;;13.64;88.19;99845.28;8427148;28;20097;-74
2022/09/01 00:30:57;;;;;;;12.35;4.70;;;;;;;13.65;88.21;99852.31;8426686;28;20081;-74
2022/09/01 00:34:58;;;;;;;12.20;4.70;;;;;;;13.65;88.50;99852.31;8427097;28;20113;-74
2022/09/01 00:38:59;;;;;;;9.45;4.28;;;;;;;13.67;88.30;99847.41;8393081;28;20063;-74
2022/09/01 00:43:10;;;;;;;12.63;4.50;;;;;;;13.70;88.51;99846.75;8426233;28;20602;-74
2022/09/01 00:47:12;;;;;;;10.77;3.80;;;;;;;13.73;88.10;99848.88;8426257;28;20409;-75
2022/09/01 00:51:13;;;;;;;11.23;3.63;;;;;;;13.78;87.77;99840.59;8425898;28;20127;-75
2022/09/01 00:55:24;;;;;;;8.48;3.58;;;;;;;13.83;87.47;99843.19;8426316;28;20052;-75
2022/09/01 00:59:26;;;;;;;8.80;3.90;;;;;;;13.83;87.24;99837.75;8426192;28;20050;-74
2022/09/01 01:03:29;;;;;;;10.20;4.40;;;;;;;13.84;87.15;99839.34;8422380;28;20456;-75
2022/09/01 01:07:30;;;;;;;11.88;4.28;;;;;;;13.84;87.05;99839.34;8426063;28;20048;-75
2022/09/01 01:11:31;;;;;;;9.25;4.65;;;;;;;13.84;87.06;99839.34;8426168;28;20056;-74
2022/09/01 01:15:32;;;;;;;8.57;4.35;;;;;;;13.83;87.11;99837.75;8423431;28;20052;-74
2022/09/01 01:24:28;;;;;;;19.25;4.55;;;;;;;13.84;87.65;99833.91;8421235;28;20044;-74
2022/09/01 01:28:33;;;;;;;11.02;4.22;;;;;;;13.81;87.79;99839.97;8419789;28;20512;-74
2022/09/01 01:32:34;;;;;;;14.57;4.00;;;;;;;13.79;88.01;99836.78;8425991;28;20463;-74
2022/09/01 01:36:38;;;;;;;9.95;3.92;;;;;;;13.74;88.05;99833.38;8425918;28;20452;-74
2022/09/01 01:40:40;;;;;;;12.30;4.05;;;;;;;13.74;87.98;99833.38;8386373;28;20048;-74
2022/09/01 01:44:41;;;;;;;10.18;3.58;;;;;;;13.73;87.99;99838.00;8432299;28;20055;-74
2022/09/01 01:48:42;;;;;;;8.65;3.70;;;;;;;13.74;88.03;99834.19;8432187;28;20079;-74
2022/09/01 01:52:43;;;;;;;7.18;3.20;;;;;;;13.72;88.42;99847.25;8408533;28;20048;-74
2022/09/01 01:56:44;;;;;;;11.38;3.72;;;;;;;13.67;88.82;99833.81;8413111;28;20051;-74
2022/09/01 02:00:47;;;;;;;7.90;4.18;;;;;;;13.64;89.16;99833.66;8431839;28;20116;-74
2022/09/01 02:04:47;;;;;;;8.45;3.67;;;;;;;13.63;88.94;99838.28;8431267;28;20072;-74
2022/09/01 02:08:51;;;;;;;9.68;3.92;;;;;;;13.64;89.18;99829.00;8431518;28;20496;-74
2022/09/01 02:12:52;;;;;;;9.45;4.10;;;;;;;13.64;89.33;99829.00;8431772;28;20052;-74
2022/09/01 02:16:54;;;;;;;13.25;4.18;;;;;;;13.62;89.41;99831.25;8423025;28;20055;-74
2022/09/01 02:20:57;;;;;;;12.95;4.40;;;;;;;13.59;89.28;99826.41;8420006;28;20048;-75
2022/09/01 02:24:59;;;;;;;7.78;4.22;;;;;;;13.58;89.30;99824.84;8430843;28;20578;-75
2022/09/01 02:29:03;;;;;;;10.45;4.32;;;;;;;13.55;89.56;99825.44;8430889;28;20459;-74
2022/09/01 02:33:04;;;;;;;12.15;5.05;;;;;;;13.50;89.66;99828.28;8394052;28;20047;-74
2022/09/01 02:37:05;;;;;;;9.80;4.65;;;;;;;13.45;89.84;99814.84;8428529;28;20147;-74
2022/09/01 02:41:06;;;;;;;9.57;4.45;;;;;;;13.44;89.89;99818.69;8430471;28;20048;-74
2022/09/01 02:45:10;;;;;;;13.18;4.53;;;;;;;13.42;90.08;99818.19;8430392;28;20068;-74
2022/09/01 02:49:18;;;;;;;7.53;3.72;;;;;;;13.39;90.60;99821.53;8429357;28;20101;-73
2022/09/01 02:53:20;;;;;;;11.60;4.00;;;;;;;13.39;90.78;99821.53;8428887;28;20126;-74
2022/09/01 02:57:23;;;;;;;12.23;4.18;;;;;;;13.38;91.00;99819.91;8394652;28;20540;-74
2022/09/01 03:01:29;;;;;;;9.23;3.85;;;;;;;13.38;91.01;99825.34;8416016;28;20508;-74
2022/09/01 03:05:31;;;;;;;8.50;3.58;;;;;;;13.39;90.89;99826.94;8394692;28;20105;-74
2022/09/01 03:09:33;;;;;;;6.78;3.47;;;;;;;13.37;91.16;99818.34;8415895;28;20040;-74
2022/09/01 03:13:35;;;;;;;10.30;3.67;;;;;;;13.35;91.50;99815.13;8418809;28;20044;-74
2022/09/01 03:17:35;;;;;;;13.75;3.67;;;;;;;13.35;91.58;99817.81;8429217;28;20044;-74
2022/09/01 03:21:39;;;;;;;8.75;3.83;;;;;;;13.32;91.73;99811.13;8428760;28;20077;-74
2022/09/01 03:25:44;;;;;;;8.57;3.47;;;;;;;13.29;91.88;99811.72;8422694;28;20036;-74
2022/09/01 03:29:45;;;;;;;9.52;3.72;;;;;;;13.27;91.80;99824.78;8423717;28;20040;-75
2022/09/01 03:33:46;;;;;;;10.20;3.40;;;;;;;13.23;91.89;99817.56;8424982;28;20565;-74
2022/09/01 03:37:47;;;;;;;7.38;3.80;;;;;;;13.19;92.43;99822.03;8430249;28;20048;-74
2022/09/01 03:41:48;;;;;;;6.97;3.40;;;;;;;13.21;92.25;99825.25;8414713;28;20153;-75
2022/09/01 03:45:50;;;;;;;7.53;3.35;;;;;;;13.18;92.21;99823.13;8397865;28;20488;-74
2022/09/01 03:49:51;;;;;;;7.47;3.50;;;;;;;13.16;92.55;99817.22;8432770;28;20055;-75
2022/09/01 03:53:56;;;;;;;6.47;3.67;;;;;;;13.12;92.75;99822.44;8436003;28;20801;-74
2022/09/01 03:58:05;;;;;;;11.00;3.20;;;;;;;13.09;92.69;99813.00;8439135;28;20052;-75
2022/09/01 04:02:06;;;;;;;9.05;4.10;;;;;;;13.07;93.02;99815.22;8436566;28;20075;-75
2022/09/01 04:06:08;;;;;;;7.65;3.88;;;;;;;13.05;93.17;99817.44;8412396;28;20587;-74
2022/09/01 04:10:10;;;;;;;12.52;4.28;;;;;;;13.04;93.20;99810.41;8431367;28;20054;-75
2022/09/01 04:14:11;;;;;;;12.18;3.45;;;;;;;13.03;93.39;99814.22;8444184;28;20036;-74
2022/09/01 04:18:19;;;;;;;6.38;3.50;;;;;;;13.03;93.56;99819.66;8424097;28;20048;-75
2022/09/01 04:22:19;;;;;;;10.55;3.67;;;;;;;13.04;93.57;99823.16;8433125;28;20040;-74
2022/09/01 04:26:22;;;;;;;7.85;3.70;;;;;;;13.05;93.51;99812.03;8441477;28;20404;-75
2022/09/01 04:30:30;;;;;;;9.02;3.47;;;;;;;13.06;93.50;99818.22;8445208;28;20036;-74
2022/09/01 04:34:38;;;;;;;9.88;4.35;;;;;;;13.05;93.38;99822.88;8444755;28;20040;-75
2022/09/01 04:38:39;;;;;;;8.77;3.80;;;;;;;13.06;93.17;99824.44;8450936;28;20107;-75
2022/09/01 04:42:40;;;;;;;9.82;3.70;;;;;;;13.09;93.15;99823.84;8429727;28;20480;-75
2022/09/01 04:46:45;;;;;;;9.32;3.90;;;;;;;13.12;93.35;99827.88;8441058;28;20062;-75
2022/09/01 04:50:48;;;;;;;7.75;3.63;;;;;;;13.14;93.00;99835.72;8432812;28;20032;-75
2022/09/01 04:54:49;;;;;;;11.38;3.60;;;;;;;13.10;92.85;99830.88;8446428;28;20052;-75
2022/09/01 04:58:50;;;;;;;8.90;3.92;;;;;;;13.10;92.85;99828.16;8433723;28;20528;-75
2022/09/01 05:03:02;;;;;;;10.52;3.85;;;;;;;13.15;92.50;99831.88;8442558;28;20048;-75
2022/09/01 05:07:04;;;;;;;13.18;3.90;;;;;;;13.17;92.18;99835.88;8437062;28;20052;-75
2022/09/01 05:11:06;;;;;;;10.13;3.67;;;;;;;13.18;92.33;99836.69;8446641;28;20044;-75
2022/09/01 05:15:08;;;;;;;11.98;4.57;;;;;;;13.26;92.12;99833.25;8409978;28;20052;-75
2022/09/01 05:19:13;;;;;;;6.28;3.42;;;;;;;13.33;91.78;99839.03;8443085;28;20491;-75
2022/09/01 05:23:18;;;;;;;13.77;4.50;;;;;;;13.37;91.66;99834.59;8424192;28;20032;-75
2022/09/01 05:27:19;;;;;;;13.55;4.60;;;;;;;13.41;91.76;99835.59;8421475;28;20488;-75
2022/09/01 05:31:26;;;;;;;9.00;4.45;;;;;;;13.47;91.29;99828.94;8439687;28;20044;-75
2022/09/01 05:35:28;;;;;;;17.20;3.78;;;;;;;13.57;91.18;99827.84;8434852;28;20086;-75
2022/09/01 05:39:29;;;;;;;9.32;3.85;;;;;;;13.66;90.87;99837.66;8411391;28;20481;-74
2022/09/01 05:43:31;;;;;;;6.57;3.22;;;;;;;13.73;90.51;99842.63;8436197;28;20401;-75
2022/09/01 05:47:35;;;;;;;7.70;3.55;;;;;;;13.81;90.27;99834.53;8454892;28;20040;-75
2022/09/01 05:51:36;;;;;;;13.35;3.97;;;;;;;13.88;90.05;99837.59;8453062;28;20073;-76
2022/09/01 05:55:37;;;;;;;10.35;3.58;;;;;;;13.96;89.79;99844.16;8434966;28;20063;-75
2022/09/01 05:59:40;;;;;;;7.15;3.00;;;;;;;14.05;89.45;99838.78;8443303;28;20048;-75
2022/09/01 06:03:43;;;;;;;8.02;2.88;;;;;;;14.10;89.04;99841.38;8431953;28;20373;-75
2022/09/01 06:07:44;;;;;;;7.25;3.42;;;;;;;14.22;88.73;99849.72;8416198;28;20036;-75
2022/09/01 06:11:45;;;;;;;5.53;3.17;;;;;;;14.30;88.14;99851.66;8439005;28;20047;-75
2022/09/01 06:15:48;;;;;;;5.40;2.95;;;;;;;14.38;87.80;99850.94;8427000;28;20032;-75
2022/09/01 06:19:51;;;;;;;7.63;2.70;;;;;;;14.51;87.55;99852.72;8455068;28;20058;-75
2022/09/01 06:23:55;;;;;;;7.40;2.83;;;;;;;14.66;87.01;99857.69;8440898;28;20048;-75
2022/09/01 06:27:56;;;;;;;10.43;2.58;;;;;;;14.74;86.42;99847.97;8447698;28;20074;-75
2022/09/01 06:32:01;;;;;;;7.30;2.58;;;;;;;14.70;85.94;99858.66;8452461;28;20044;-75
2022/09/01 06:36:02;;;;;;;9.60;3.17;;;;;;;14.67;85.82;99867.47;8444288;28;20107;-75
2022/09/01 06:40:04;;;;;;;10.27;2.30;;;;;;;14.66;85.91;99867.78;8457031;28;20057;-75
2022/09/01 06:44:06;;;;;;;6.18;2.40;;;;;;;14.62;85.78;99859.47;8454013;28;20063;-75
2022/09/01 06:48:07;;;;;;;8.18;2.20;;;;;;;14.64;85.68;99862.66;8443144;28;20059;-75
2022/09/01 06:52:08;;;;;;;5.75;2.42;;;;;;;14.75;85.56;99863.94;8427778;28;20059;-75
2022/09/01 06:56:12;;;;;;;6.10;2.55;;;;;;;14.80;85.39;99877.38;8434317;28;20393;-75
2022/09/01 07:00:16;;;;;;;7.65;2.58;;;;;;;14.76;85.39;99881.84;8438482;28;20073;-75
2022/09/01 07:04:20;;;;;;;6.50;2.80;;;;;;;14.80;85.43;99882.81;8434912;28;20056;-75
2022/09/01 07:08:23;;;;;;;6.60;2.92;;;;;;;14.84;84.83;99876.75;8433798;28;20040;-75
2022/09/01 07:12:24;;;;;;;10.85;2.72;;;;;;;14.88;84.67;99875.00;8444252;28;20073;-75
2022/09/01 07:16:28;;;;;;;6.43;2.58;;;;;;;14.95;84.30;99878.06;8442326;28;20074;-75
2022/09/01 07:20:34;;;;;;;5.25;2.30;;;;;;;15.02;84.15;99878.38;8450352;28;20044;-75
2022/09/01 07:24:35;;;;;;;7.28;2.30;;;;;;;15.12;83.75;99880.78;8450507;28;20071;-75
2022/09/01 07:28:36;;;;;;;7.68;2.25;;;;;;;15.21;83.32;99882.41;8445314;28;20040;-75
2022/09/01 07:32:42;;;;;;;3.92;1.95;;;;;;;15.34;82.50;99886.06;8438564;28;20044;-74
2022/09/01 07:36:43;;;;;;;6.70;2.20;;;;;;;15.43;80.69;99884.16;8421395;28;20060;-74
2022/09/01 07:40:45;;;;;;;3.47;1.38;;;;;;;15.48;79.42;99880.47;8406990;28;20043;-75
2022/09/01 07:44:46;;;;;;;6.22;1.48;;;;;;;15.56;79.55;99885.09;8423468;28;20043;-75
2022/09/01 07:48:49;;;;;;;5.03;1.33;;;;;;;15.63;79.38;99878.06;8419369;28;20048;-75
2022/09/01 07:52:50;;;;;;;2.13;1.30;;;;;;;15.80;79.28;99884.59;8442910;28;20092;-75
2022/09/01 07:56:54;;;;;;;5.03;1.42;;;;;;;15.92;77.77;99890.16;8425057;28;20053;-75
2022/09/01 08:00:56;;;;;;;4.32;1.50;;;;;;;15.96;77.06;99891.13;8440623;28;20044;-75
2022/09/01 08:04:57;;;;;;;4.95;1.88;;;;;;;16.03;77.20;99896.84;8429769;28;20036;-75
2022/09/01 08:08:59;;;;;;;16.38;1.90;;;;;;;16.08;76.93;99893.94;8449247;28;20052;-75
2022/09/01 08:13:00;;;;;;;4.25;1.70;;;;;;;16.22;76.05;99894.56;8429665;28;20040;-75
2022/09/01 08:17:01;;;;;;;4.95;1.55;;;;;;;16.35;75.91;99898.97;8441153;28;20044;-75
2022/09/01 08:21:08;;;;;;;5.50;1.55;;;;;;;16.55;73.96;99907.56;8445143;28;20071;-74
2022/09/01 08:25:09;;;;;;;5.88;1.40;;;;;;;16.57;73.83;99899.84;8446585;28;20108;-75
2022/09/01 08:29:10;;;;;;;5.15;1.02;;;;;;;16.67;72.51;99902.22;8440958;28;20040;-75
2022/09/01 08:33:12;;;;;;;10.52;1.30;;;;;;;16.68;71.63;99907.34;8430548;28;20051;-75
2022/09/01 08:37:13;;;;;;;3.55;1.33;;;;;;;16.62;71.97;99907.84;8429508;28;20074;-75
2022/09/01 08:41:37;;;;;;;2.67;1.10;;;;;;;16.67;71.31;99910.41;8450443;28;20048;-75
2022/09/01 08:45:56;;;;;;;3.35;1.00;;;;;;;16.67;71.82;99907.66;8451010;28;20044;-75
2022/09/01 08:49:58;;;;;;;3.45;1.20;;;;;;;16.86;70.52;99899.88;8440370;28;20063;-75
2022/09/01 08:54:20;;;;;;;2.13;0.95;;;;;;;17.04;69.87;99904.06;8439259;28;20055;-76
2022/09/01 08:58:21;;;;;;;4.75;1.40;;;;;;;17.23;69.42;99901.69;8427667;28;20040;-75
2022/09/01 09:02:28;;;;;;;2.28;1.13;;;;;;;17.41;68.90;99901.53;8440161;28;20051;-75
2022/09/01 09:06:56;;;;;;;1.55;1.05;;;;;;;17.57;68.44;99905.22;8437311;28;20078;-75
2022/09/01 09:11:06;;;;;;;3.97;1.15;;;;;;;17.26;68.33;99911.94;8371638;28;20049;-75
2022/09/01 09:15:11;;;;;;;;;;;;;;;17.25;69.17;99910.31;8348238;28;20065;-74
2022/09/01 09:19:32;;;;;;;5.10;1.38;;;;;;;17.20;67.78;99907.78;8353281;28;19921;-75
2022/09/01 09:23:41;;;;;;;3.25;1.02;;;;;;;17.40;67.24;99913.56;8360900;28;20049;-75
2022/09/01 09:27:47;;;;;;;2.40;1.10;;;;;;;17.62;64.69;99919.50;8339597;28;20105;-74
2022/09/01 09:32:01;;;;;;;1.98;1.00;;;;;;;17.80;63.59;99903.75;8303830;28;20505;-75
2022/09/01 09:36:16;;;;;;;3.05;0.90;;;;;;;18.08;62.79;99904.72;8353493;28;20056;-75
2022/09/01 09:40:18;;;;;;;2.65;0.80;;;;;;;18.19;61.95;99898.84;8356139;28;20408;-75
2022/09/01 09:44:28;;;;;;;3.97;0.98;;;;;;;18.38;61.02;99902.63;8360958;28;20049;-74
2022/09/01 09:48:31;;;;;;;2.17;0.82;;;;;;;18.44;60.41;99905.91;8399370;28;20094;-75
2022/09/01 09:52:32;;;;;;;6.45;1.67;;;;;;;18.41;59.42;99907.38;8398762;28;20055;-75
2022/09/01 09:56:33;;;;;;;2.53;1.10;;;;;;;18.54;58.60;99905.50;8438672;28;20119;-76
2022/09/01 10:00:35;;;;;;;5.93;1.40;;;;;;;18.61;57.47;99910.41;8453865;28;20046;-75
2022/09/01 10:04:37;;;;;;;4.30;1.30;;;;;;;18.69;57.24;99906.75;8372401;28;20052;-75
2022/09/01 10:08:44;;;;;;;2.78;0.90;;;;;;;18.81;54.71;99909.47;8376835;28;20049;-75
2022/09/01 10:12:44;;;;;;;3.65;0.93;;;;;;;18.93;54.72;99904.75;8383422;28;20045;-76
2022/09/01 10:16:50;;;;;;;2.13;1.00;;;;;;;19.08;54.63;99908.75;8381919;28;20540;-75
2022/09/01 10:21:03;;;;;;;3.92;0.90;;;;;;;19.14;54.15;99906.56;8375724;28;20057;-75
2022/09/01 10:25:13;;;;;;;3.20;1.00;;;;;;;19.20;53.01;99916.09;8380452;28;20093;-75
2022/09/01 10:29:33;;;;;;;4.32;0.88;;;;;;;19.24;53.60;99903.34;8364990;28;20574;-75
2022/09/01 10:33:34;;;;;;;2.25;0.70;;;;;;;19.26;53.61;99898.31;8373005;28;20058;-75
2022/09/01 10:37:36;;;;;;;1.83;1.20;;;;;;;19.32;53.46;99896.91;8452805;28;20043;-75
2022/09/01 10:41:53;;;;;;;1.70;0.80;;;;;;;19.47;52.45;99896.19;8443407;28;20055;-76
2022/09/01 10:45:54;;;;;;;2.75;0.90;;;;;;;19.66;53.45;99896.38;8459188;28;20104;-75
2022/09/01 10:49:58;;;;;;;3.25;0.70;;;;;;;19.84;51.92;99891.34;8448006;28;20051;-74
2022/09/01 10:54:04;;;;;;;2.00;0.85;;;;;;;19.90;52.36;99894.63;8449947;28;20047;-75
2022/09/01 10:58:28;;;;;;;1.58;0.80;;;;;;;19.90;51.77;99894.63;8449979;28;20048;-75
2022/09/01 11:02:29;;;;;;;0.60;0.40;;;;;;;19.79;52.42;99894.34;8453514;28;20067;-76
2022/09/01 11:06:36;;;;;;;2.47;0.95;;;;;;;20.11;51.87;99878.72;8416015;28;20055;-75
2022/09/01 11:10:55;;;;;;;1.40;0.73;;;;;;;20.40;52.38;99886.56;8449073;28;20060;-75
2022/09/01 11:15:05;;;;;;;2.72;0.82;;;;;;;20.18;51.26;99895.38;8452335;28;20044;-75
2022/09/01 11:19:21;;;;;;;2.88;0.90;;;;;;;19.59;52.33;99890.69;8451352;28;20048;-75
2022/09/01 11:23:30;;;;;;;7.97;0.93;;;;;;;19.75;53.19;99897.00;8452797;28;20052;-75
2022/09/01 11:27:50;;;;;;;1.35;0.70;;;;;;;20.06;52.07;99887.22;8435280;28;20051;-74
2022/09/01 11:31:51;;;;;;;1.35;0.70;;;;;;;20.18;50.77;99889.88;8445255;28;20044;-75
2022/09/01 11:36:11;;;;;;;1.63;0.88;;;;;;;19.95;51.20;99891.63;8433452;28;20488;-76
2022/09/01 11:40:22;;;;;;;1.38;0.88;;;;;;;19.66;52.43;99896.38;8441527;28;20046;-75
2022/09/01 11:44:26;;;;;;;2.78;0.70;;;;;;;19.22;53.81;99894.66;8424351;28;20044;-74
2022/09/01 11:48:27;;;;;;;5.07;0.70;;;;;;;18.69;53.82;99895.78;8438030;28;20059;-75
2022/09/01 11:52:31;;;;;;;2.72;0.75;;;;;;;18.52;55.37;99896.78;8439663;28;20044;-75
2022/09/01 11:56:32;;;;;;;2.78;0.80;;;;;;;19.02;54.82;99887.44;8420749;28;20075;-75
2022/09/01 12:00:38;;;;;;;3.03;0.77;;;;;;;19.74;53.91;99878.97;8429205;28;20059;-75
2022/09/01 12:04:40;;;;;;;3.25;0.68;;;;;;;20.26;52.68;99869.69;8436813;28;20036;-75
2022/09/01 12:08:50;;;;;;;3.28;0.60;;;;;;;20.14;49.30;99872.56;8437737;28;20040;-74
2022/09/01 12:13:21;;;;;;;0.80;0.60;;;;;;;19.56;50.11;99885.91;8435005;28;20050;-75
2022/09/01 12:17:22;;;;;;;1.52;0.63;;;;;;;19.02;51.41;99887.44;8440728;28;20040;-75
2022/09/01 12:21:33;;;;;;;1.25;0.57;;;;;;;18.82;53.61;99884.47;8446865;28;20101;-75
2022/09/01 12:25:34;;;;;;;1.48;0.60;;;;;;;18.74;54.05;99877.22;8455931;28;20063;-75
2022/09/01 12:29:38;;;;;;;2.45;0.77;;;;;;;19.32;54.09;99864.06;8451636;28;20044;-75
2022/09/01 12:33:41;;;;;;;1.55;0.60;;;;;;;19.81;51.54;99843.53;8425988;28;20047;-75
2022/09/01 12:37:42;;;;;;;1.55;0.65;;;;;;;20.21;49.14;99846.09;8452069;28;20137;-75
2022/09/01 12:41:45;;;;;;;0.57;0.47;;;;;;;20.10;48.90;99849.72;8445936;28;20420;-75
2022/09/01 12:45:46;;;;;;;0.73;0.50;;;;;;;19.54;49.77;99860.78;8431296;28;20051;-74
2022/09/01 12:49:47;;;;;;;2.92;0.47;;;;;;;19.15;51.51;99861.59;8452125;28;20053;-75
2022/09/01 12:53:57;;;;;;;2.05;0.70;;;;;;;19.34;52.18;99856.28;8451937;28;20092;-75
2022/09/01 12:58:04;;;;;;;1.92;0.70;;;;;;;19.77;50.08;99853.56;8432360;28;20142;-75
2022/09/01 13:02:28;;;;;;;3.65;0.63;;;;;;;20.06;47.24;99848.84;8438111;28;20048;-75
2022/09/01 13:06:29;;;;;;;1.00;0.70;;;;;;;20.25;46.63;99851.66;8433063;28;20032;-75
2022/09/01 13:10:52;;;;;;;1.08;0.45;;;;;;;20.36;45.92;99840.97;8436714;28;20049;-75
2022/09/01 13:14:52;;;;;;;1.63;0.60;;;;;;;20.29;46.56;99849.00;8435900;28;20155;-75
2022/09/01 13:18:53;;;;;;;1.30;0.90;;;;;;;19.82;47.66;99838.84;8446299;28;20128;-75
2022/09/01 13:22:54;;;;;;;0.93;0.60;;;;;;;19.45;49.62;99851.94;8432683;28;20044;-75
2022/09/01 13:26:56;;;;;;;2.17;0.68;;;;;;;19.13;50.89;99847.47;8428133;28;20454;-75
2022/09/01 13:31:00;;;;;;;2.97;0.60;;;;;;;19.57;51.89;99849.13;8384152;28;20493;-76
2022/09/01 13:35:01;;;;;;;3.22;0.65;;;;;;;22.49;46.54;99837.72;8429763;28;20052;-75
2022/09/01 13:39:02;;;;;;;1.95;0.60;;;;;;;24.75;42.79;99831.88;8412875;28;20051;-75
2022/09/01 13:43:04;;;;;;;0.95;0.60;;;;;;;26.23;39.34;99833.53;8426848;28;20074;-75
2022/09/01 13:47:05;;;;;;;1.25;0.60;;;;;;;27.80;37.27;99842.97;8446739;28;20065;-76
2022/09/01 13:51:06;;;;;;;2.95;0.68;;;;;;;28.89;34.48;99835.66;8448233;28;20044;-76
2022/09/01 13:55:10;;;;;;;0.77;0.50;;;;;;;28.30;32.39;99842.59;8443675;28;20063;-75
2022/09/01 13:59:11;;;;;;;1.10;0.60;;;;;;;24.98;36.78;99841.91;8424271;28;20055;-76
2022/09/01 14:03:19;;;;;;;0.95;0.70;;;;;;;22.97;40.24;99845.13;8426076;28;20052;-76
2022/09/01 14:07:20;;;;;;;3.13;0.77;;;;;;;21.70;43.67;99848.53;8433600;28;20048;-75
2022/09/01 14:11:21;;;;;;;3.28;0.85;;;;;;;20.86;45.57;99853.88;8438049;28;20131;-76
2022/09/01 14:15:22;;;;;;;3.13;0.60;;;;;;;20.28;48.25;99845.47;8434200;28;20036;-75
2022/09/01 14:19:23;;;;;;;1.67;0.57;;;;;;;22.83;45.66;99839.44;8434131;28;20047;-75
2022/09/01 14:23:24;;;;;;;0.40;0.30;;;;;;;26.33;38.94;99835.50;8424406;28;20484;-75
2022/09/01 14:27:25;;;;;;;4.10;0.60;;;;;;;28.72;34.89;99819.97;8403664;28;20025;-76
2022/09/01 14:31:26;;;;;;;1.75;0.65;;;;;;;29.59;32.46;99822.06;8448784;28;20044;-76
2022/09/01 14:35:27;;;;;;;1.48;0.75;;;;;;;30.04;31.55;99830.94;8444184;28;20048;-76
2022/09/01 14:39:29;;;;;;;1.10;0.50;;;;;;;28.94;32.01;99820.50;8457730;28;20050;-76
2022/09/01 14:43:31;;;;;;;0.40;0.40;;;;;;;27.21;33.43;99823.44;8444613;28;20048;-76
2022/09/01 14:47:33;;;;;;;1.05;0.52;;;;;;;25.36;35.32;99827.44;8446127;28;20047;-75
2022/09/01 14:51:35;;;;;;;0.50;0.50;;;;;;;24.02;37.25;99823.81;8417645;28;20140;-75
2022/09/01 14:55:36;;;;;;;1.48;0.80;;;;;;;22.83;38.76;99817.41;8422579;28;20541;-76
2022/09/01 14:59:37;;;;;;;1.02;0.80;;;;;;;22.19;40.22;99816.44;8424966;28;20051;-75
2022/09/01 15:03:38;;;;;;;2.13;0.63;;;;;;;21.74;42.18;99821.91;8423931;28;20052;-75
2022/09/01 15:07:40;;;;;;;1.25;0.60;;;;;;;21.54;43.75;99812.91;8405712;28;20520;-76
2022/09/01 15:11:41;;;;;;;0.93;0.50;;;;;;;21.59;44.22;99807.13;8408667;28;20189;-75
2022/09/01 15:15:42;;;;;;;2.28;0.50;;;;;;;21.58;43.81;99819.25;8405253;28;20477;-77
2022/09/01 15:19:43;;;;;;;3.72;0.40;;;;;;;21.27;43.74;99812.00;8359139;28;20049;-75
2022/09/01 15:23:44;;;;;;;1.17;0.60;;;;;;;21.14;43.57;99818.81;8453096;28;20045;-76
2022/09/01 15:27:45;;;;;;;0.80;0.40;;;;;;;20.92;44.02;99814.00;8441223;28;20028;-75
2022/09/01 15:31:46;;;;;;;0.88;0.63;;;;;;;20.59;43.99;99817.22;8426828;28;20081;-75
2022/09/01 15:35:48;;;;;;;0.52;0.30;;;;;;;20.29;44.41;99808.66;8448095;28;20644;-75
2022/09/01 15:39:48;;;;;;;2.63;0.80;;;;;;;20.08;45.05;99819.13;8410099;28;20044;-76
2022/09/01 15:43:49;;;;;;;67.18;21.00;;;;;;;20.00;45.15;99811.84;8431628;28;20051;-74
2022/09/01 15:47:50;;;;;;;2.00;0.93;;;;;;;19.83;46.06;99806.75;8428312;28;20052;-75
2022/09/01 15:51:54;;;;;;;1.70;0.63;;;;;;;19.64;46.58;99800.00;8438973;28;20139;-74
2022/09/01 15:55:56;;;;;;;1.98;0.80;;;;;;;19.53;47.05;99787.97;8423334;28;20052;-75
2022/09/01 15:59:57;;;;;;;2.05;0.93;;;;;;;19.50;47.49;99794.16;8399325;28;20059;-75
2022/09/01 16:03:59;;;;;;;1.30;0.40;;;;;;;19.47;47.55;99800.31;8436568;28;20131;-75
2022/09/01 16:08:07;;;;;;;1.23;0.50;;;;;;;19.40;47.19;99802.88;8435459;28;20048;-75
2022/09/01 16:12:08;;;;;;;3.93;0.67;;;;;;;19.37;47.58;99800.81;8445137;28;20105;-74
2022/09/01 16:16:13;;;;;;;0.57;0.57;;;;;;;19.36;47.34;99799.22;8441489;28;20081;-75
2022/09/01 16:20:20;;;;;;;2.08;0.70;;;;;;;19.36;47.91;99804.69;8446340;28;20051;-75
2022/09/01 16:24:22;;;;;;;2.85;0.60;;;;;;;19.38;48.27;99802.41;8437195;28;20061;-75
2022/09/01 16:28:35;;;;;;;1.00;0.60;;;;;;;19.39;49.11;99793.06;8435286;28;20037;-75
2022/09/01 16:32:40;;;;;;;1.67;0.70;;;;;;;19.31;49.40;99796.72;8414220;28;20488;-75
2022/09/01 16:36:47;;;;;;;6.03;0.80;;;;;;;19.13;50.10;99789.97;8429542;28;20135;-75
2022/09/01 16:41:08;;;;;;;4.15;0.80;;;;;;;18.99;49.76;99806.78;8442115;28;20047;-75
2022/09/01 16:45:30;;;;;;;3.75;0.60;;;;;;;18.88;51.57;99801.00;8400679;28;20059;-75
2022/09/01 16:49:48;;;;;;;1.02;0.70;;;;;;;18.74;51.84;99806.06;8397299;28;20404;-75
2022/09/01 16:54:27;;;;;;;1.33;0.70;;;;;;;18.55;52.35;99803.16;8391414;28;20072;-75
2022/09/01 16:58:46;;;;;;;1.00;0.70;;;;;;;18.39;54.01;99811.25;8287758;28;20375;-75
2022/09/01 17:02:55;;;;;;;1.63;0.80;;;;;;;18.17;56.08;99802.69;8297236;28;20096;-75
2022/09/01 17:07:18;;;;;;;1.33;0.80;;;;;;;17.94;57.38;99805.88;8310226;28;20050;-75
2022/09/01 17:11:24;;;;;;;3.35;1.33;;;;;;;17.69;58.91;99809.72;8302565;28;20053;-75
2022/09/01 17:15:30;;;;;;;4.45;0.90;;;;;;;17.47;58.91;99812.81;8302104;28;20054;-75
2022/09/01 17:19:31;;;;;;;1.42;0.52;;;;;;;17.29;59.95;99812.97;8332573;28;20049;-75
2022/09/01 17:23:40;;;;;;;2.83;0.80;;;;;;;17.08;61.55;99823.13;8298269;28;20491;-75
2022/09/01 17:27:47;;;;;;;;;;;;;;;16.88;62.63;99813.03;8313770;28;20506;-75
2022/09/01 17:31:53;;;;;;;2.45;0.73;;;;;;;16.67;63.87;99823.13;8336927;28;19921;-75
2022/09/01 17:36:02;;;;;;;3.97;1.20;;;;;;;16.47;65.53;99836.38;8441950;28;20119;-75
2022/09/01 17:40:18;;;;;;;1.83;0.93;;;;;;;16.26;66.55;99834.72;8418597;28;20045;-75
2022/09/01 17:44:34;;;;;;;5.53;1.13;;;;;;;16.04;67.65;99838.50;8426679;28;20036;-75
2022/09/01 17:48:38;;;;;;;8.52;3.25;;;;;;;15.87;68.71;99844.03;8424448;28;20045;-75
2022/09/01 17:53:11;;;;;;;19.10;6.28;;;;;;;15.68;69.25;99838.16;8413822;28;20094;-75
2022/09/01 17:57:30;;;;;;;26.25;8.82;;;;;;;15.49;69.47;99839.28;8426473;28;20077;-75
2022/09/01 18:01:57;;;;;;;28.08;8.90;;;;;;;15.32;70.07;99850.22;8418424;28;20075;-75
2022/09/01 18:06:06;;;;;;;29.30;10.15;;;;;;;15.19;70.69;99856.63;8434118;28;20095;-75
2022/09/01 18:10:14;;;;;;;24.60;9.00;;;;;;;15.02;71.45;99856.59;8431716;28;20124;-75
2022/09/01 18:14:38;;;;;;;22.70;8.00;;;;;;;14.89;71.77;99860.28;8434162;28;20059;-75
2022/09/01 18:18:44;;;;;;;22.60;8.85;;;;;;;14.74;72.41;99859.66;8429068;28;20036;-75
2022/09/01 18:22:51;;;;;;;20.55;10.00;;;;;;;14.59;72.86;99865.50;8449149;28;20044;-75
2022/09/01 18:26:52;;;;;;;20.92;10.20;;;;;;;14.49;73.67;99870.47;8442401;28;20091;-75
2022/09/01 18:31:07;;;;;;;22.48;10.02;;;;;;;14.38;74.15;99875.38;8440477;28;20043;-75
2022/09/01 18:35:35;;;;;;;24.02;10.40;;;;;;;14.30;73.83;99873.41;8408799;28;20174;-75
2022/09/01 18:39:44;;;;;;;20.17;9.32;;;;;;;14.18;74.53;99865.03;8314045;28;20150;-73
2022/09/01 18:43:50;;;;;;;;;;;;;;;14.10;74.98;99868.53;8298206;28;20534;-74
2022/09/01 18:48:12;;;;;;;21.70;10.90;;;;;;;14.01;75.40;99870.41;8295247;28;19925;-75
2022/09/01 18:52:18;;;;;;;22.17;10.25;;;;;;;13.95;75.49;99872.47;8291459;28;20049;-75
2022/09/01 18:56:34;;;;;;;21.58;12.40;;;;;;;13.87;75.86;99871.28;8276988;28;20042;-74
2022/09/01 19:01:02;;;;;;;25.58;11.10;;;;;;;13.76;76.04;99886.25;8291944;28;20046;-75
2022/09/01 19:05:27;;;;;;;18.55;9.93;;;;;;;13.67;76.32;99893.53;8214875;28;20058;-74
2022/09/01 19:09:32;;;;;;;16.50;8.48;;;;;;;13.61;76.55;99894.78;8176146;29;20046;-74
2022/09/01 19:13:46;;;;;;;21.13;7.18;;;;;;;13.52;76.71;99897.44;8163820;29;20537;-74
2022/09/01 19:18:12;;;;;;;14.30;7.53;;;;;;;13.43;76.97;99887.63;8213165;28;20057;-74